createdAt,value
2023-02-02T00:02:59.814Z,6.30
2023-02-02T00:07:05.641Z,6.40
2023-02-02T00:11:11.900Z,6.40
2023-02-02T00:15:17.488Z,6.40
2023-02-02T00:19:27.151Z,6.40
2023-02-02T00:23:32.697Z,6.40
2023-02-02T00:27:38.155Z,6.30
2023-02-02T00:31:43.926Z,6.40
2023-02-02T00:35:52.511Z,6.40
2023-02-02T00:39:57.966Z,6.40
2023-02-02T00:44:22.522Z,6.30
2023-02-02T00:48:28.129Z,6.30
2023-02-02T00:52:33.737Z,6.20
2023-02-02T00:56:42.023Z,6.30
2023-02-02T01:00:47.592Z,6.20
2023-02-02T01:04:53.205Z,6.20
2023-02-02T01:08:58.701Z,6.30
2023-02-02T01:13:04.870Z,6.30
2023-02-02T01:17:10.470Z,6.30
2023-02-02T01:21:16.051Z,6.30
2023-02-02T01:25:21.575Z,6.30
2023-02-02T01:29:27.352Z,6.20
2023-02-02T01:33:32.967Z,6.30
2023-02-02T01:37:39.264Z,6.20
2023-02-02T01:41:44.840Z,6.20
2023-02-02T01:45:52.618Z,6.10
2023-02-02T01:49:58.279Z,6.00
2023-02-02T01:54:10.919Z,6.00
2023-02-02T01:58:24.609Z,6.00
2023-02-02T02:02:31.297Z,5.90
2023-02-02T02:06:36.858Z,5.80
2023-02-02T02:10:42.418Z,5.80
2023-02-02T02:15:09.893Z,5.80
2023-02-02T02:20:01.008Z,5.70
2023-02-02T02:24:57.286Z,5.70
2023-02-02T02:29:28.223Z,5.60
2023-02-02T02:33:59.151Z,5.50
2023-02-02T02:38:21.831Z,5.50
2023-02-02T02:42:31.559Z,5.50
2023-02-02T02:46:38.097Z,5.50
2023-02-02T02:50:43.681Z,5.50
2023-02-02T02:54:55.665Z,5.50
2023-02-02T02:59:34.055Z,5.60
2023-02-02T03:04:08.696Z,5.50
2023-02-02T03:08:50.836Z,5.40
2023-02-02T03:12:57.569Z,5.50
2023-02-02T03:17:03.473Z,5.40
2023-02-02T03:21:09.068Z,5.30
2023-02-02T03:25:15.988Z,5.30
2023-02-02T03:29:21.644Z,5.30
2023-02-02T03:33:27.806Z,5.30
2023-02-02T03:37:33.375Z,5.30
2023-02-02T03:41:38.920Z,5.30
2023-02-02T03:45:44.351Z,5.30
2023-02-02T03:49:49.883Z,5.30
2023-02-02T03:53:55.346Z,5.30
2023-02-02T03:58:00.800Z,5.20
2023-02-02T04:02:07.338Z,5.20
2023-02-02T04:06:12.806Z,5.20
2023-02-02T04:10:18.733Z,5.20
2023-02-02T04:14:24.269Z,5.20
2023-02-02T04:18:29.934Z,5.20
2023-02-02T04:22:35.488Z,5.20
2023-02-02T04:26:41.981Z,5.20
2023-02-02T04:30:47.611Z,5.10
2023-02-02T04:34:53.200Z,5.10
2023-02-02T04:38:58.765Z,5.10
2023-02-02T04:43:04.258Z,5.10
2023-02-02T04:47:09.687Z,5.20
2023-02-02T04:51:15.773Z,5.20
2023-02-02T04:55:21.372Z,5.20
2023-02-02T04:59:30.042Z,5.20
2023-02-02T05:03:35.571Z,5.20
2023-02-02T05:07:41.528Z,5.20
2023-02-02T05:11:46.981Z,5.20
2023-02-02T05:15:53.905Z,5.20
2023-02-02T05:19:59.476Z,5.30
2023-02-02T05:24:05.279Z,5.20
2023-02-02T05:28:11.112Z,5.20
2023-02-02T05:32:17.409Z,5.20
2023-02-02T05:36:22.859Z,5.20
2023-02-02T05:40:28.360Z,5.20
2023-02-02T05:44:33.929Z,5.10
2023-02-02T05:48:39.496Z,5.10
2023-02-02T05:52:47.532Z,5.10
2023-02-02T05:56:56.460Z,5.10
2023-02-02T06:01:02.375Z,5.10
2023-02-02T06:05:08.381Z,5.10
2023-02-02T06:09:14.019Z,5.30
2023-02-02T06:13:19.509Z,5.20
2023-02-02T06:17:25.631Z,5.10
2023-02-02T06:21:31.549Z,5.10
2023-02-02T06:25:37.291Z,5.10
2023-02-02T06:29:42.980Z,5.00
2023-02-02T06:33:56.722Z,5.00
2023-02-02T06:38:02.486Z,5.00
2023-02-02T06:42:20.310Z,5.00
2023-02-02T06:46:26.648Z,5.10
2023-02-02T06:50:32.248Z,5.10
2023-02-02T06:54:37.804Z,5.10
2023-02-02T06:58:43.495Z,5.10
2023-02-02T07:02:49.072Z,5.10
2023-02-02T07:06:54.664Z,5.10
2023-02-02T07:11:12.758Z,5.10
2023-02-02T07:15:22.413Z,5.10
2023-02-02T07:19:28.133Z,5.20
2023-02-02T07:23:34.296Z,5.10
2023-02-02T07:27:39.781Z,5.10
2023-02-02T07:31:45.475Z,5.10
2023-02-02T07:35:51.676Z,5.20
2023-02-02T07:39:57.185Z,5.20
2023-02-02T07:44:04.594Z,5.20
2023-02-02T07:48:10.137Z,5.20
2023-02-02T07:52:15.984Z,5.20
2023-02-02T07:56:25.481Z,5.20
2023-02-02T08:00:31.933Z,5.30
2023-02-02T08:04:37.487Z,5.30
2023-02-02T08:08:43.551Z,5.30
2023-02-02T08:12:51.785Z,5.30
2023-02-02T08:16:57.488Z,5.30
2023-02-02T08:21:05.086Z,5.30
2023-02-02T08:25:10.616Z,5.30
2023-02-02T08:29:17.447Z,5.40
2023-02-02T08:33:23.361Z,5.40
2023-02-02T08:37:28.852Z,5.30
2023-02-02T08:41:34.745Z,5.40
2023-02-02T08:46:01.351Z,5.40
2023-02-02T08:50:10.230Z,5.40
2023-02-02T08:54:15.824Z,5.40
2023-02-02T08:58:22.285Z,5.40
2023-02-02T09:02:27.801Z,5.50
2023-02-02T09:06:38.683Z,5.50
2023-02-02T09:10:44.160Z,5.60
2023-02-02T09:14:50.136Z,5.60
2023-02-02T09:18:56.932Z,5.70
2023-02-02T09:23:02.394Z,5.80
2023-02-02T09:27:07.852Z,5.80
2023-02-02T09:31:14.370Z,5.90
2023-02-02T09:35:19.993Z,6.10
2023-02-02T09:39:25.807Z,6.10
2023-02-02T09:44:02.958Z,6.10
2023-02-02T09:48:46.407Z,6.30
2023-02-02T09:53:07.787Z,6.30
2023-02-02T09:57:23.927Z,6.30
2023-02-02T10:01:37.323Z,6.30
2023-02-02T10:05:58.007Z,6.40
2023-02-02T10:10:20.091Z,6.40
2023-02-02T10:14:45.131Z,6.40
2023-02-02T10:18:59.465Z,6.50
2023-02-02T10:23:39.211Z,6.60
2023-02-02T10:28:10.529Z,6.60
2023-02-02T10:32:27.618Z,6.60
2023-02-02T10:36:52.599Z,6.60
2023-02-02T10:41:32.007Z,6.80
2023-02-02T10:45:41.083Z,6.90
2023-02-02T10:49:56.033Z,6.80
2023-02-02T10:54:12.144Z,6.90
2023-02-02T10:58:30.576Z,6.80
2023-02-02T11:02:36.132Z,6.90
2023-02-02T11:06:51.533Z,6.90
2023-02-02T11:11:08.855Z,7.00
2023-02-02T11:15:28.588Z,7.00
2023-02-02T11:19:35.607Z,7.00
2023-02-02T11:23:41.405Z,7.10
2023-02-02T11:27:47.098Z,7.20
2023-02-02T11:31:52.748Z,7.10
2023-02-02T11:36:02.017Z,7.20
2023-02-02T11:40:28.492Z,7.30
2023-02-02T11:44:35.857Z,7.30
2023-02-02T11:49:00.093Z,7.30
2023-02-02T11:53:06.854Z,7.30
2023-02-02T11:57:22.142Z,7.40
2023-02-02T12:01:31.941Z,7.40
2023-02-02T12:05:38.078Z,7.30
2023-02-02T12:09:43.547Z,7.40
2023-02-02T12:14:04.141Z,7.40
2023-02-02T12:18:31.758Z,7.50
2023-02-02T12:23:19.257Z,7.50
2023-02-02T12:28:07.247Z,7.60
2023-02-02T12:33:18.307Z,7.50
2023-02-02T12:37:52.786Z,7.50
2023-02-02T12:42:39.732Z,7.50
2023-02-02T12:46:45.516Z,7.60
2023-02-02T12:51:41.288Z,7.70
2023-02-02T12:56:13.479Z,7.80
2023-02-02T13:00:54.105Z,7.80
2023-02-02T13:05:21.659Z,7.90
2023-02-02T13:09:48.530Z,7.80
2023-02-02T13:13:54.928Z,7.80
2023-02-02T13:18:08.350Z,7.90
2023-02-02T13:22:32.367Z,7.90
2023-02-02T13:26:43.173Z,7.90
2023-02-02T13:30:53.040Z,8.00
2023-02-02T13:35:07.157Z,8.10
2023-02-02T13:39:22.421Z,8.10
2023-02-02T13:43:53.174Z,8.10
2023-02-02T13:48:30.561Z,8.10
2023-02-02T13:53:01.649Z,8.10
2023-02-02T13:57:57.102Z,8.20
2023-02-02T14:02:03.327Z,8.20
2023-02-02T14:06:18.930Z,8.30
2023-02-02T14:10:32.045Z,8.30
2023-02-02T14:14:39.864Z,8.40
2023-02-02T14:18:51.307Z,8.40
2023-02-02T14:22:59.650Z,8.40
2023-02-02T14:27:08.508Z,8.50
2023-02-02T14:31:18.577Z,8.60
2023-02-02T14:35:25.873Z,8.60
2023-02-02T14:39:31.621Z,8.60
2023-02-02T14:43:49.670Z,8.50
2023-02-02T14:48:00.372Z,8.50
2023-02-02T14:52:21.643Z,8.50
2023-02-02T14:56:45.533Z,8.40
2023-02-02T15:01:23.748Z,8.40
2023-02-02T15:05:29.292Z,8.40
2023-02-02T15:09:38.911Z,8.30
2023-02-02T15:13:50.695Z,8.30
2023-02-02T15:18:12.685Z,8.20
2023-02-02T15:23:06.248Z,8.10
2023-02-02T15:27:19.675Z,8.10
2023-02-02T15:31:44.922Z,8.00
2023-02-02T15:35:53.054Z,8.00
2023-02-02T15:40:02.321Z,7.90
2023-02-02T15:44:28.313Z,7.80
2023-02-02T15:48:34.869Z,7.70
2023-02-02T15:52:50.124Z,7.60
2023-02-02T15:56:58.342Z,7.50
2023-02-02T16:01:18.035Z,7.40
2023-02-02T16:05:54.766Z,7.40
2023-02-02T16:10:08.095Z,7.30
2023-02-02T16:14:17.864Z,7.10
2023-02-02T16:18:23.419Z,7.00
2023-02-02T16:22:30.912Z,6.90
2023-02-02T16:26:36.887Z,6.80
2023-02-02T16:30:43.373Z,6.70
2023-02-02T16:34:50.000Z,6.60
2023-02-02T16:38:58.348Z,6.40
2023-02-02T16:43:28.625Z,6.30
2023-02-02T16:47:37.891Z,6.20
2023-02-02T16:51:44.016Z,6.10
2023-02-02T16:55:51.389Z,6.00
2023-02-02T17:00:04.242Z,6.00
2023-02-02T17:04:27.332Z,5.90
2023-02-02T17:08:39.599Z,5.70
2023-02-02T17:12:46.390Z,5.70
2023-02-02T17:16:51.988Z,5.60
2023-02-02T17:21:03.741Z,5.40
2023-02-02T17:25:42.020Z,5.30
2023-02-02T17:29:48.042Z,5.20
2023-02-02T17:33:53.492Z,5.20
2023-02-02T17:37:58.981Z,5.00
2023-02-02T17:42:06.222Z,4.90
2023-02-02T17:46:13.487Z,5.00
2023-02-02T17:50:19.658Z,4.90
2023-02-02T17:54:25.303Z,4.80
2023-02-02T17:58:30.996Z,4.60
2023-02-02T18:02:36.649Z,4.60
2023-02-02T18:06:42.233Z,4.50
2023-02-02T18:10:47.832Z,4.50
2023-02-02T18:14:53.360Z,4.40
2023-02-02T18:18:58.927Z,4.30
2023-02-02T18:23:04.393Z,4.20
2023-02-02T18:27:09.997Z,4.20
2023-02-02T18:31:19.693Z,4.10
2023-02-02T18:35:27.013Z,4.10
2023-02-02T18:39:32.890Z,4.00
2023-02-02T18:43:38.348Z,4.00
2023-02-02T18:47:43.957Z,3.90
2023-02-02T18:51:50.843Z,3.90
2023-02-02T18:55:56.425Z,3.90
2023-02-02T19:00:02.567Z,3.90
2023-02-02T19:04:08.834Z,3.90
2023-02-02T19:08:14.404Z,3.90
2023-02-02T19:12:19.993Z,3.80
2023-02-02T19:16:32.600Z,3.80
2023-02-02T19:20:38.369Z,3.80
2023-02-02T19:24:43.897Z,3.70
2023-02-02T19:28:50.115Z,3.70
2023-02-02T19:32:55.704Z,3.70
2023-02-02T19:37:24.165Z,3.70
2023-02-02T19:41:30.031Z,3.70
2023-02-02T19:45:35.885Z,3.70
2023-02-02T19:49:41.381Z,3.70
2023-02-02T19:53:47.217Z,3.70
2023-02-02T19:58:24.974Z,3.70
2023-02-02T20:03:02.654Z,3.70
2023-02-02T20:07:14.181Z,3.70
2023-02-02T20:11:39.382Z,3.70
2023-02-02T20:15:45.534Z,3.70
2023-02-02T20:19:51.156Z,3.70
2023-02-02T20:23:56.746Z,3.80
2023-02-02T20:28:30.895Z,3.80
2023-02-02T20:32:41.235Z,3.80
2023-02-02T20:36:47.753Z,3.80
2023-02-02T20:40:53.364Z,3.80
2023-02-02T20:44:58.913Z,3.90
2023-02-02T20:49:05.644Z,3.90
2023-02-02T20:53:11.265Z,3.90
2023-02-02T20:57:17.735Z,3.90
2023-02-02T21:01:25.262Z,4.00
2023-02-02T21:05:30.787Z,4.00
2023-02-02T21:09:36.248Z,4.00
2023-02-02T21:13:41.760Z,4.10
2023-02-02T21:17:47.269Z,4.00
2023-02-02T21:21:52.711Z,4.10
2023-02-02T21:25:58.195Z,4.20
2023-02-02T21:30:05.006Z,4.20
2023-02-02T21:34:10.754Z,4.20
2023-02-02T21:38:16.677Z,4.20
2023-02-02T21:42:23.481Z,4.30
2023-02-02T21:46:38.313Z,4.30
2023-02-02T21:50:43.804Z,4.30
2023-02-02T21:54:49.524Z,4.40
2023-02-02T21:58:59.650Z,4.40
2023-02-02T22:03:26.117Z,4.40
2023-02-02T22:07:33.154Z,4.50
2023-02-02T22:12:23.476Z,4.60
2023-02-02T22:16:29.105Z,4.50
2023-02-02T22:20:37.079Z,4.50
2023-02-02T22:24:50.770Z,4.60
2023-02-02T22:28:56.563Z,4.60
2023-02-02T22:33:02.374Z,4.60
2023-02-02T22:37:07.794Z,4.60
2023-02-02T22:41:13.458Z,4.60
2023-02-02T22:45:19.408Z,4.60
2023-02-02T22:49:24.899Z,4.60
2023-02-02T22:53:32.482Z,4.60
2023-02-02T22:57:38.404Z,4.60
2023-02-02T23:01:43.924Z,4.60
2023-02-02T23:05:49.405Z,4.60
2023-02-02T23:09:54.963Z,4.60
2023-02-02T23:14:00.430Z,4.60
2023-02-02T23:18:05.950Z,4.60
2023-02-02T23:22:11.549Z,4.60
2023-02-02T23:26:17.261Z,4.60
2023-02-02T23:30:24.419Z,4.60
2023-02-02T23:34:30.295Z,4.60
2023-02-02T23:38:35.756Z,4.60
2023-02-02T23:42:41.263Z,4.50
2023-02-02T23:46:47.224Z,4.60
2023-02-02T23:50:53.491Z,4.60
2023-02-02T23:55:01.351Z,4.50
2023-02-02T23:59:06.845Z,4.50
